createdAt,value
2023-01-11T00:01:10.555Z,3.23
2023-01-11T00:03:37.532Z,3.40
2023-01-11T00:06:08.198Z,3.83
2023-01-11T00:08:35.191Z,3.80
2023-01-11T00:11:04.274Z,2.83
2023-01-11T00:13:34.235Z,3.07
2023-01-11T00:16:09.610Z,3.13
2023-01-11T00:18:37.654Z,3.33
2023-01-11T00:21:09.200Z,3.80
2023-01-11T00:23:37.918Z,3.37
2023-01-11T00:26:12.009Z,2.53
2023-01-11T00:28:39.169Z,3.20
2023-01-11T00:31:06.300Z,3.60
2023-01-11T00:33:37.824Z,2.90
2023-01-11T00:36:05.007Z,2.83
2023-01-11T00:38:54.085Z,2.50
2023-01-11T00:41:41.500Z,2.80
2023-01-11T00:44:29.789Z,2.17
2023-01-11T00:47:16.547Z,3.20
2023-01-11T00:49:44.388Z,2.57
2023-01-11T00:52:12.471Z,2.83
2023-01-11T00:54:42.578Z,2.47
2023-01-11T00:57:09.831Z,1.73
2023-01-11T00:59:42.753Z,2.50
2023-01-11T01:02:11.731Z,2.73
2023-01-11T01:04:42.163Z,2.60
2023-01-11T01:07:12.112Z,2.73
2023-01-11T01:09:38.947Z,3.30
2023-01-11T01:12:12.847Z,3.80
2023-01-11T01:14:41.933Z,2.97
2023-01-11T01:17:09.346Z,2.20
2023-01-11T01:19:38.531Z,2.30
2023-01-11T01:22:05.493Z,2.90
2023-01-11T01:24:33.951Z,2.57
2023-01-11T01:27:01.106Z,1.80
2023-01-11T01:29:28.005Z,2.33
2023-01-11T01:31:55.050Z,2.67
2023-01-11T01:34:22.024Z,3.07
2023-01-11T01:36:48.994Z,2.40
2023-01-11T01:39:18.534Z,2.43
2023-01-11T01:41:45.520Z,1.67
2023-01-11T01:45:03.318Z,2.00
2023-01-11T01:47:49.092Z,1.80
2023-01-11T01:50:36.439Z,2.27
2023-01-11T01:53:35.808Z,1.83
2023-01-11T01:56:08.159Z,2.03
2023-01-11T01:58:51.257Z,2.23
2023-01-11T02:01:37.184Z,2.30
2023-01-11T02:04:12.577Z,1.63
2023-01-11T02:06:40.462Z,1.63
2023-01-11T02:09:29.701Z,2.10
2023-01-11T02:11:58.861Z,1.63
2023-01-11T02:14:27.895Z,2.30
2023-01-11T02:16:57.001Z,1.40
2023-01-11T02:19:54.167Z,1.60
2023-01-11T02:23:11.743Z,1.77
2023-01-11T02:25:46.616Z,1.97
2023-01-11T02:29:20.743Z,2.10
2023-01-11T02:31:58.859Z,2.17
2023-01-11T02:35:01.844Z,1.60
2023-01-11T02:37:47.919Z,1.60
2023-01-11T02:40:37.304Z,1.43
2023-01-11T02:43:48.603Z,2.17
2023-01-11T02:46:43.651Z,2.27
2023-01-11T02:49:35.621Z,1.40
2023-01-11T02:52:21.078Z,1.70
2023-01-11T02:54:55.729Z,1.67
2023-01-11T02:57:29.388Z,1.97
2023-01-11T02:59:58.093Z,1.73
2023-01-11T03:02:27.972Z,1.60
2023-01-11T03:04:54.845Z,1.37
2023-01-11T03:07:52.422Z,1.70
2023-01-11T03:10:43.625Z,1.40
2023-01-11T03:13:31.579Z,1.70
2023-01-11T03:16:25.334Z,1.90
2023-01-11T03:19:22.295Z,1.87
2023-01-11T03:22:25.197Z,1.33
2023-01-11T03:25:40.441Z,1.33
2023-01-11T03:28:39.610Z,1.73
2023-01-11T03:31:21.213Z,1.37
2023-01-11T03:34:40.465Z,1.40
2023-01-11T03:37:38.707Z,1.40
2023-01-11T03:40:30.635Z,1.43
2023-01-11T03:43:12.398Z,1.40
2023-01-11T03:46:01.325Z,1.57
2023-01-11T03:48:37.075Z,1.30
2023-01-11T03:51:09.870Z,1.47
2023-01-11T03:53:39.781Z,1.20
2023-01-11T03:56:11.845Z,1.43
2023-01-11T03:58:41.159Z,1.50
2023-01-11T04:01:11.328Z,1.97
2023-01-11T04:03:38.253Z,1.43
2023-01-11T04:06:05.604Z,1.23
2023-01-11T04:08:35.514Z,1.20
2023-01-11T04:11:07.925Z,1.40
2023-01-11T04:13:37.569Z,1.80
2023-01-11T04:16:07.040Z,1.37
2023-01-11T04:18:33.974Z,1.70
2023-01-11T04:21:03.374Z,1.50
2023-01-11T04:23:32.815Z,1.47
2023-01-11T04:26:01.986Z,1.27
2023-01-11T04:28:28.993Z,1.57
2023-01-11T04:30:57.966Z,1.57
2023-01-11T04:33:24.966Z,1.40
2023-01-11T04:35:51.798Z,1.77
2023-01-11T04:38:18.899Z,1.57
2023-01-11T04:40:48.069Z,1.60
2023-01-11T04:43:15.126Z,2.10
2023-01-11T04:45:44.491Z,1.20
2023-01-11T04:48:11.461Z,1.70
2023-01-11T04:50:38.343Z,1.67
2023-01-11T04:53:08.037Z,1.10
2023-01-11T04:55:37.634Z,1.63
2023-01-11T04:58:04.515Z,1.40
2023-01-11T05:00:33.913Z,1.43
2023-01-11T05:03:00.774Z,1.77
2023-01-11T05:05:27.672Z,1.30
2023-01-11T05:07:55.678Z,1.27
2023-01-11T05:10:25.525Z,1.00
2023-01-11T05:12:52.401Z,1.20
2023-01-11T05:15:19.252Z,1.30
2023-01-11T05:17:55.846Z,1.10
2023-01-11T05:20:22.663Z,1.40
2023-01-11T05:22:49.683Z,1.47
2023-01-11T05:25:16.639Z,1.40
2023-01-11T05:27:45.751Z,1.43
2023-01-11T05:30:13.006Z,1.00
2023-01-11T05:32:39.955Z,1.60
2023-01-11T05:35:10.084Z,1.30
2023-01-11T05:37:38.382Z,1.77
2023-01-11T05:40:07.560Z,1.30
2023-01-11T05:42:36.753Z,1.70
2023-01-11T05:45:22.765Z,1.37
2023-01-11T05:47:53.790Z,1.30
2023-01-11T05:50:20.994Z,1.40
2023-01-11T05:52:47.837Z,1.60
2023-01-11T05:55:14.916Z,1.20
2023-01-11T05:57:43.319Z,1.30
2023-01-11T06:00:14.008Z,1.20
2023-01-11T06:02:43.703Z,1.43
2023-01-11T06:05:10.640Z,1.40
2023-01-11T06:07:37.722Z,1.20
2023-01-11T06:10:07.283Z,1.37
2023-01-11T06:12:34.650Z,1.77
2023-01-11T06:15:01.541Z,1.37
2023-01-11T06:17:28.551Z,1.10
2023-01-11T06:19:55.670Z,1.10
2023-01-11T06:22:27.221Z,1.20
2023-01-11T06:24:54.054Z,1.20
2023-01-11T06:27:25.363Z,1.20
2023-01-11T06:29:55.473Z,1.13
2023-01-11T06:32:22.392Z,0.90
2023-01-11T06:34:49.284Z,1.00
2023-01-11T06:37:16.242Z,1.33
2023-01-11T06:39:43.091Z,0.90
2023-01-11T06:42:10.108Z,1.00
2023-01-11T06:44:37.205Z,1.20
2023-01-11T06:47:07.123Z,1.33
2023-01-11T06:49:36.977Z,1.10
2023-01-11T06:52:03.924Z,1.13
2023-01-11T06:54:33.734Z,1.13
2023-01-11T06:57:00.551Z,1.10
2023-01-11T06:59:29.648Z,1.30
2023-01-11T07:01:56.696Z,1.50
2023-01-11T07:04:23.572Z,1.17
2023-01-11T07:06:54.413Z,1.43
2023-01-11T07:09:21.315Z,1.40
2023-01-11T07:11:48.146Z,1.47
2023-01-11T07:14:19.888Z,1.70
2023-01-11T07:16:52.738Z,1.20
2023-01-11T07:19:22.692Z,1.90
2023-01-11T07:21:49.543Z,1.40
2023-01-11T07:24:16.579Z,1.10
2023-01-11T07:26:43.768Z,1.17
2023-01-11T07:29:11.313Z,1.70
2023-01-11T07:31:38.309Z,1.57
2023-01-11T07:34:10.792Z,1.33
2023-01-11T07:36:39.999Z,1.70
2023-01-11T07:39:09.858Z,1.60
2023-01-11T07:41:55.581Z,1.60
2023-01-11T07:44:22.464Z,1.63
2023-01-11T07:46:49.454Z,1.70
2023-01-11T07:49:18.662Z,2.63
2023-01-11T07:51:45.569Z,1.80
2023-01-11T07:54:12.443Z,1.67
2023-01-11T07:56:39.334Z,1.63
2023-01-11T07:59:06.279Z,2.13
2023-01-11T08:01:33.382Z,1.97
2023-01-11T08:04:00.324Z,2.33
2023-01-11T08:06:27.226Z,1.60
2023-01-11T08:08:58.616Z,1.90
2023-01-11T08:11:43.895Z,2.20
2023-01-11T08:14:29.584Z,1.70
2023-01-11T08:16:56.498Z,1.87
2023-01-11T08:19:25.941Z,2.23
2023-01-11T08:21:52.826Z,1.63
2023-01-11T08:24:22.076Z,1.73
2023-01-11T08:26:49.116Z,1.70
2023-01-11T08:29:15.961Z,2.17
2023-01-11T08:31:47.530Z,2.03
2023-01-11T08:34:17.751Z,2.23
2023-01-11T08:36:44.648Z,2.10
2023-01-11T08:39:14.656Z,2.40
2023-01-11T08:41:43.988Z,2.53
2023-01-11T08:44:15.036Z,2.60
2023-01-11T08:46:41.992Z,2.50
2023-01-11T08:49:12.405Z,2.10
2023-01-11T08:51:41.313Z,1.90
2023-01-11T08:54:13.265Z,2.20
2023-01-11T08:56:42.982Z,2.60
2023-01-11T08:59:12.630Z,3.10
2023-01-11T09:01:42.122Z,2.30
2023-01-11T09:04:23.135Z,2.70
2023-01-11T09:06:53.280Z,2.57
2023-01-11T09:09:22.765Z,2.10
2023-01-11T09:11:56.692Z,2.30
2023-01-11T09:14:26.279Z,2.47
2023-01-11T09:16:54.224Z,2.70
2023-01-11T09:19:21.881Z,1.80
2023-01-11T09:21:48.908Z,2.13
2023-01-11T09:24:18.071Z,2.30
2023-01-11T09:26:45.049Z,2.27
2023-01-11T09:29:12.297Z,2.57
2023-01-11T09:31:41.778Z,2.60
2023-01-11T09:34:12.276Z,2.37
2023-01-11T09:36:40.348Z,1.80
2023-01-11T09:39:14.551Z,2.70
2023-01-11T09:42:17.500Z,2.90
2023-01-11T09:44:58.063Z,2.80
2023-01-11T09:47:30.955Z,2.30
2023-01-11T09:50:07.640Z,2.70
2023-01-11T09:52:42.909Z,2.70
2023-01-11T09:55:20.148Z,2.30
2023-01-11T09:58:29.126Z,2.60
2023-01-11T10:01:36.113Z,2.60
2023-01-11T10:04:22.442Z,2.23
2023-01-11T10:07:51.466Z,2.30
2023-01-11T10:18:34.250Z,2.50
2023-01-11T10:20:02.637Z,2.13
2023-01-11T10:22:42.564Z,1.57
2023-01-11T10:25:34.448Z,1.23
2023-01-11T10:28:13.197Z,1.40
2023-01-11T10:30:51.340Z,1.60
2023-01-11T10:33:45.510Z,1.00
2023-01-11T10:37:02.490Z,1.40
2023-01-11T10:40:03.969Z,1.43
2023-01-11T10:42:45.117Z,1.97
2023-01-11T10:45:43.301Z,1.90
2023-01-11T10:48:36.879Z,1.73
2023-01-11T10:51:29.840Z,1.23
2023-01-11T10:54:20.422Z,1.40
2023-01-11T10:57:04.799Z,1.60
2023-01-11T10:59:42.813Z,1.40
2023-01-11T11:02:26.180Z,1.30
2023-01-11T11:05:11.324Z,1.27
2023-01-11T11:08:14.594Z,1.77
2023-01-11T11:10:55.872Z,2.40
2023-01-11T11:13:46.248Z,2.03
2023-01-11T11:16:22.483Z,1.33
2023-01-11T11:18:55.577Z,1.27
2023-01-11T11:21:39.245Z,1.83
2023-01-11T11:24:22.045Z,1.87
2023-01-11T11:26:58.279Z,2.20
2023-01-11T11:29:30.692Z,2.40
2023-01-11T11:32:02.251Z,2.53
2023-01-11T11:34:32.325Z,2.40
2023-01-11T11:37:00.582Z,1.47
2023-01-11T11:39:31.630Z,2.23
2023-01-11T11:42:10.491Z,2.20
2023-01-11T11:44:37.631Z,1.80
2023-01-11T11:47:14.857Z,2.03
2023-01-11T11:49:42.701Z,2.60
2023-01-11T11:52:16.224Z,3.03
2023-01-11T11:54:52.806Z,2.23
2023-01-11T11:57:28.130Z,3.10
2023-01-11T12:00:24.755Z,2.43
2023-01-11T12:03:06.486Z,4.10
2023-01-11T12:05:36.493Z,3.20
2023-01-11T12:08:03.743Z,2.27
2023-01-11T12:10:32.245Z,1.77
2023-01-11T12:13:04.384Z,2.00
2023-01-11T12:15:34.210Z,2.10
2023-01-11T12:18:33.269Z,2.50
2023-01-11T12:21:20.553Z,3.70
2023-01-11T12:23:48.898Z,3.60
2023-01-11T12:26:29.825Z,3.50
2023-01-11T12:29:09.546Z,3.33
2023-01-11T12:31:49.544Z,3.07
2023-01-11T12:34:44.277Z,2.37
2023-01-11T12:37:52.144Z,2.50
2023-01-11T12:40:42.373Z,2.63
2023-01-11T12:43:49.627Z,2.50
2023-01-11T12:46:33.856Z,2.20
2023-01-11T12:49:20.201Z,3.20
2023-01-11T12:52:01.013Z,3.07
2023-01-11T12:54:51.536Z,2.70
2023-01-11T12:57:29.923Z,1.93
2023-01-11T13:00:11.078Z,1.83
2023-01-11T13:03:01.549Z,3.00
2023-01-11T13:05:35.125Z,2.80
2023-01-11T13:08:46.142Z,2.13
2023-01-11T13:11:48.795Z,2.50
2023-01-11T13:14:36.760Z,2.67
2023-01-11T13:17:41.117Z,2.20
2023-01-11T13:20:48.781Z,3.43
2023-01-11T13:23:57.245Z,3.00
2023-01-11T13:26:39.292Z,3.63
2023-01-11T13:29:17.123Z,2.63
2023-01-11T13:31:46.989Z,2.60
2023-01-11T13:34:35.704Z,3.40
2023-01-11T13:37:26.356Z,3.13
2023-01-11T13:39:58.802Z,2.53
2023-01-11T13:42:39.074Z,3.50
2023-01-11T13:45:26.647Z,3.57
2023-01-11T13:48:18.243Z,3.20
2023-01-11T13:51:01.994Z,2.80
2023-01-11T13:53:39.300Z,4.70
2023-01-11T13:56:32.019Z,3.60
2023-01-11T13:59:04.051Z,3.50
2023-01-11T14:02:00.905Z,3.40
2023-01-11T14:04:48.972Z,3.30
2023-01-11T14:08:01.021Z,3.43
2023-01-11T14:10:58.635Z,5.60
2023-01-11T14:14:07.664Z,8.47
2023-01-11T14:17:11.646Z,3.77
2023-01-11T14:20:13.396Z,3.70
2023-01-11T14:22:58.141Z,5.73
2023-01-11T14:25:30.600Z,5.07
2023-01-11T14:28:28.044Z,4.90
2023-01-11T14:31:24.060Z,4.83
2023-01-11T14:34:09.391Z,5.07
2023-01-11T14:37:05.705Z,4.10
2023-01-11T14:40:13.031Z,3.77
2023-01-11T14:43:26.926Z,4.00
2023-01-11T14:46:34.291Z,4.63
2023-01-11T14:49:17.713Z,4.27
2023-01-11T14:51:44.511Z,5.10
2023-01-11T14:54:19.701Z,5.47
2023-01-11T14:56:52.233Z,4.90
2023-01-11T14:59:31.306Z,4.30
2023-01-11T15:02:06.012Z,4.70
2023-01-11T15:04:58.789Z,4.50
2023-01-11T15:07:33.966Z,4.47
2023-01-11T15:10:22.799Z,6.80
2023-01-11T15:12:49.831Z,7.00
2023-01-11T15:15:23.003Z,6.23
2023-01-11T15:18:18.480Z,5.73
2023-01-11T15:21:05.327Z,5.43
2023-01-11T15:23:40.676Z,5.73
2023-01-11T15:26:18.187Z,4.97
2023-01-11T15:28:52.222Z,5.40
2023-01-11T15:31:41.037Z,4.80
2023-01-11T15:34:21.971Z,5.57
2023-01-11T15:36:54.912Z,6.30
2023-01-11T15:39:36.000Z,5.80
2023-01-11T15:42:33.249Z,5.50
2023-01-11T15:46:33.490Z,5.77
2023-01-11T15:49:47.390Z,7.07
2023-01-11T15:52:50.399Z,6.40
2023-01-11T15:55:32.195Z,5.10
2023-01-11T15:58:20.703Z,5.03
2023-01-11T16:00:58.617Z,5.70
2023-01-11T16:04:00.761Z,5.80
2023-01-11T16:06:38.555Z,4.50
2023-01-11T16:10:01.260Z,4.00
2023-01-11T16:12:50.193Z,4.73
2023-01-11T16:15:44.297Z,4.17
2023-01-11T16:18:23.483Z,4.20
2023-01-11T16:21:03.434Z,4.53
2023-01-11T16:23:34.393Z,4.20
2023-01-11T16:26:02.717Z,5.00
2023-01-11T16:28:31.928Z,5.03
2023-01-11T16:31:05.636Z,5.00
2023-01-11T16:33:34.714Z,4.90
2023-01-11T16:36:21.361Z,5.07
2023-01-11T16:39:01.778Z,5.00
2023-01-11T16:41:55.457Z,6.90
2023-01-11T16:44:45.886Z,6.03
2023-01-11T16:47:17.612Z,5.67
2023-01-11T16:49:52.503Z,7.20
2023-01-11T16:52:28.304Z,7.17
2023-01-11T16:55:00.388Z,7.20
2023-01-11T16:57:39.917Z,6.23
2023-01-11T17:00:35.921Z,6.00
2023-01-11T17:03:23.985Z,8.63
2023-01-11T17:06:12.836Z,8.33
2023-01-11T17:08:50.628Z,6.00
2023-01-11T17:11:30.125Z,6.67
2023-01-11T17:14:46.784Z,7.00
2023-01-11T17:17:16.625Z,6.10
2023-01-11T17:19:50.776Z,7.70
2023-01-11T17:22:23.710Z,7.70
2023-01-11T17:24:55.832Z,6.03
2023-01-11T17:27:47.797Z,4.70
2023-01-11T17:30:20.572Z,5.40
2023-01-11T17:32:54.740Z,4.93
2023-01-11T17:35:27.294Z,4.90
2023-01-11T17:38:04.585Z,5.30
2023-01-11T17:40:40.306Z,5.00
2023-01-11T17:43:40.101Z,5.23
2023-01-11T17:46:14.460Z,5.57
2023-01-11T17:49:00.747Z,6.10
2023-01-11T17:51:39.611Z,6.33
2023-01-11T17:54:19.527Z,6.73
2023-01-11T17:56:57.001Z,6.17
2023-01-11T17:59:32.417Z,5.70
2023-01-11T18:02:15.182Z,5.03
2023-01-11T18:04:45.842Z,8.73
2023-01-11T18:07:18.408Z,6.90
2023-01-11T18:09:50.874Z,5.83
2023-01-11T18:12:29.087Z,4.90
2023-01-11T18:14:57.002Z,5.40
2023-01-11T18:17:36.845Z,5.53
2023-01-11T18:20:29.359Z,5.20
2023-01-11T18:23:26.896Z,5.27
2023-01-11T18:26:29.341Z,4.20
2023-01-11T18:28:56.498Z,4.80
2023-01-11T18:31:26.840Z,4.40
2023-01-11T18:33:53.993Z,4.70
2023-01-11T18:36:26.028Z,4.47
2023-01-11T18:38:55.734Z,3.87
2023-01-11T18:41:43.161Z,3.80
2023-01-11T18:44:13.279Z,3.73
2023-01-11T18:46:43.109Z,4.17
2023-01-11T18:49:10.098Z,4.50
2023-01-11T18:51:40.484Z,4.20
2023-01-11T18:54:15.488Z,4.80
2023-01-11T18:56:42.435Z,4.67
2023-01-11T18:59:14.927Z,3.93
2023-01-11T19:01:56.443Z,5.20
2023-01-11T19:04:28.243Z,4.93
2023-01-11T19:06:55.378Z,4.57
2023-01-11T19:09:22.245Z,5.90
2023-01-11T19:11:49.186Z,5.30
2023-01-11T19:14:20.701Z,4.97
2023-01-11T19:16:48.417Z,5.03
2023-01-11T19:19:15.723Z,5.10
2023-01-11T19:21:42.728Z,4.40
2023-01-11T19:24:09.740Z,4.80
2023-01-11T19:26:39.848Z,6.07
2023-01-11T19:29:07.870Z,4.77
2023-01-11T19:31:34.726Z,4.20
2023-01-11T19:34:01.637Z,3.90
2023-01-11T19:36:32.197Z,5.77
2023-01-11T19:38:59.175Z,4.20
2023-01-11T19:41:26.146Z,5.40
2023-01-11T19:43:53.737Z,3.80
2023-01-11T19:46:31.033Z,5.03
2023-01-11T19:48:58.690Z,5.03
2023-01-11T19:51:25.930Z,3.83
2023-01-11T19:53:53.036Z,6.13
2023-01-11T19:56:20.051Z,5.83
2023-01-11T19:58:49.511Z,4.70
2023-01-11T20:01:17.015Z,4.70
2023-01-11T20:03:46.479Z,5.00
2023-01-11T20:06:15.469Z,4.10
2023-01-11T20:08:42.775Z,5.10
2023-01-11T20:11:13.076Z,5.73
2023-01-11T20:13:40.136Z,4.73
2023-01-11T20:16:12.911Z,4.70
2023-01-11T20:18:45.170Z,4.37
2023-01-11T20:21:13.582Z,4.23
2023-01-11T20:23:43.443Z,4.80
2023-01-11T20:26:22.756Z,5.00
2023-01-11T20:28:59.761Z,5.03
2023-01-11T20:31:31.618Z,5.80
2023-01-11T20:34:00.237Z,5.13
2023-01-11T20:36:30.211Z,4.60
2023-01-11T20:38:59.777Z,4.67
2023-01-11T20:41:46.501Z,5.17
2023-01-11T20:44:21.625Z,4.57
2023-01-11T20:46:49.095Z,4.73
2023-01-11T20:49:17.482Z,5.13
2023-01-11T20:51:47.998Z,5.40
2023-01-11T20:54:22.903Z,5.53
2023-01-11T20:56:52.442Z,4.93
2023-01-11T20:59:21.989Z,4.67
2023-01-11T21:01:50.321Z,4.60
2023-01-11T21:04:20.635Z,5.60
2023-01-11T21:06:51.623Z,4.93
2023-01-11T21:09:18.777Z,5.10
2023-01-11T21:11:53.081Z,4.97
2023-01-11T21:14:21.835Z,5.37
2023-01-11T21:16:48.894Z,4.97
2023-01-11T21:19:16.193Z,5.10
2023-01-11T21:21:43.136Z,5.70
2023-01-11T21:24:14.017Z,6.47
2023-01-11T21:26:48.240Z,6.03
2023-01-11T21:29:15.284Z,5.90
2023-01-11T21:31:47.843Z,5.40
2023-01-11T21:34:17.041Z,5.77
2023-01-11T21:36:44.173Z,5.37
2023-01-11T21:39:14.554Z,5.63
2023-01-11T21:41:58.805Z,5.40
2023-01-11T21:44:37.991Z,5.63
2023-01-11T21:47:06.484Z,6.50
2023-01-11T21:49:33.714Z,5.90
2023-01-11T21:52:06.972Z,5.57
2023-01-11T21:54:38.286Z,6.90
2023-01-11T21:57:07.364Z,5.37
2023-01-11T21:59:35.810Z,5.83
2023-01-11T22:02:02.637Z,5.57
2023-01-11T22:04:32.581Z,5.20
2023-01-11T22:07:00.071Z,5.60
2023-01-11T22:09:28.299Z,5.93
2023-01-11T22:11:55.532Z,4.80
2023-01-11T22:14:25.000Z,4.63
2023-01-11T22:16:52.972Z,5.23
2023-01-11T22:19:27.571Z,5.07
2023-01-11T22:21:57.933Z,6.17
2023-01-11T22:24:27.451Z,5.00
2023-01-11T22:26:54.377Z,5.03
2023-01-11T22:29:24.110Z,4.90
2023-01-11T22:31:56.181Z,5.30
2023-01-11T22:34:23.807Z,4.47
2023-01-11T22:36:50.757Z,4.53
2023-01-11T22:39:19.559Z,3.87
2023-01-11T22:41:50.122Z,4.30
2023-01-11T22:44:17.829Z,3.87
2023-01-11T22:46:47.349Z,5.00
2023-01-11T22:49:14.758Z,3.87
2023-01-11T22:51:45.284Z,4.27
2023-01-11T22:54:12.865Z,4.13
2023-01-11T22:56:40.965Z,4.93
2023-01-11T22:59:08.243Z,3.80
2023-01-11T23:01:38.520Z,4.60
2023-01-11T23:04:14.527Z,4.70
2023-01-11T23:06:42.673Z,3.90
2023-01-11T23:09:16.607Z,3.40
2023-01-11T23:12:05.409Z,3.80
2023-01-11T23:14:35.435Z,3.90
2023-01-11T23:17:06.790Z,3.57
2023-01-11T23:19:40.810Z,3.40
2023-01-11T23:22:11.486Z,2.53
2023-01-11T23:24:39.087Z,4.63
2023-01-11T23:27:06.257Z,3.47
2023-01-11T23:29:33.188Z,2.77
2023-01-11T23:32:04.998Z,3.60
2023-01-11T23:34:34.411Z,2.80
2023-01-11T23:37:01.240Z,4.27
2023-01-11T23:39:28.090Z,3.40
2023-01-11T23:42:13.277Z,3.27
2023-01-11T23:44:42.731Z,2.93
2023-01-11T23:47:25.550Z,3.47
2023-01-11T23:49:55.447Z,3.10
2023-01-11T23:52:30.574Z,3.67
2023-01-11T23:54:57.733Z,3.30
2023-01-11T23:57:26.973Z,3.20
2023-01-11T23:59:53.927Z,3.50
